Terminal Aerodrome Forecast
Issued by NWS

Home | Current Version | Previous Version | Graphics & Text | Print | Product List | Glossary Off
Versions: 1 2 3 4 5 6 7 8 9 10 11 12 13 14 15 16 17 18 19

000
FTUS43 KUNR 221141
TAFGCC
TAF
KGCC 221141Z 2212/2312 25010KT P6SM BKN150
     FM221700 30015KT P6SM BKN200
     FM230300 03010KT P6SM OVC015
     FM231000 03010KT 2SM -SN OVC010=

USA.gov is the U.S. government's official web portal to all federal, state and local government web resources and services.